sensor_id;sensor_type;location;lat;lon;timestamp;pressure;altitude;pressure_sealevel;temperature;humidity
23339;BME280;11841;49.368;20.962;2022-10-16T00:01:24;96111.63;;;9.32;93.98
23339;BME280;11841;49.368;20.962;2022-10-16T00:03:51;96126.91;;;9.30;93.81
23339;BME280;11841;49.368;20.962;2022-10-16T00:06:19;96126.91;;;9.30;93.72
23339;BME280;11841;49.368;20.962;2022-10-16T00:08:46;96129.13;;;9.33;93.77
23339;BME280;11841;49.368;20.962;2022-10-16T00:11:26;96124.88;;;9.32;94.09
23339;BME280;11841;49.368;20.962;2022-10-16T00:13:57;96123.25;;;9.31;93.89
23339;BME280;11841;49.368;20.962;2022-10-16T00:16:24;96129.34;;;9.32;93.38
23339;BME280;11841;49.368;20.962;2022-10-16T00:18:51;96127.72;;;9.31;93.86
23339;BME280;11841;49.368;20.962;2022-10-16T00:21:19;96129.94;;;9.27;93.68
23339;BME280;11841;49.368;20.962;2022-10-16T00:23:45;96132.59;;;9.27;93.62
23339;BME280;11841;49.368;20.962;2022-10-16T00:26:13;96139.28;;;9.23;93.91
23339;BME280;11841;49.368;20.962;2022-10-16T00:28:40;96141.94;;;9.23;94.42
23339;BME280;11841;49.368;20.962;2022-10-16T00:31:07;96147.22;;;9.23;94.35
23339;BME280;11841;49.368;20.962;2022-10-16T00:33:35;96152.94;;;9.27;94.62
23339;BME280;11841;49.368;20.962;2022-10-16T00:36:02;96155.38;;;9.28;95.01
23339;BME280;11841;49.368;20.962;2022-10-16T00:38:29;96148.69;;;9.32;95.36
23339;BME280;11841;49.368;20.962;2022-10-16T00:40:55;96149.31;;;9.34;95.27
23339;BME280;11841;49.368;20.962;2022-10-16T00:43:39;96160.31;;;9.38;96.86
23339;BME280;11841;49.368;20.962;2022-10-16T00:51:23;96154.00;;;9.45;97.71
23339;BME280;11841;49.368;20.962;2022-10-16T00:53:51;96155.66;;;9.46;97.40
23339;BME280;11841;49.368;20.962;2022-10-16T00:56:18;96157.91;;;9.49;98.18
23339;BME280;11841;49.368;20.962;2022-10-16T00:58:44;96159.75;;;9.55;98.73
23339;BME280;11841;49.368;20.962;2022-10-16T01:01:11;96160.38;;;9.64;99.26
23339;BME280;11841;49.368;20.962;2022-10-16T01:03:38;96150.84;;;9.76;99.42
23339;BME280;11841;49.368;20.962;2022-10-16T01:06:07;96151.47;;;9.85;99.21
23339;BME280;11841;49.368;20.962;2022-10-16T01:08:43;96164.13;;;9.89;99.82
23339;BME280;11841;49.368;20.962;2022-10-16T01:13:41;96163.72;;;9.99;99.11
23339;BME280;11841;49.368;20.962;2022-10-16T01:18:50;96164.75;;;9.98;99.81
23339;BME280;11841;49.368;20.962;2022-10-16T01:21:21;96169.63;;;10.01;100.00
23339;BME280;11841;49.368;20.962;2022-10-16T01:26:20;96173.94;;;10.08;99.84
23339;BME280;11841;49.368;20.962;2022-10-16T01:28:56;96171.91;;;10.10;100.00
23339;BME280;11841;49.368;20.962;2022-10-16T01:31:26;96175.19;;;10.12;100.00
23339;BME280;11841;49.368;20.962;2022-10-16T01:33:59;96167.22;;;10.12;100.00
23339;BME280;11841;49.368;20.962;2022-10-16T01:36:28;96167.44;;;10.17;100.00
23339;BME280;11841;49.368;20.962;2022-10-16T01:38:59;96164.16;;;10.22;100.00
23339;BME280;11841;49.368;20.962;2022-10-16T01:41:33;96174.97;;;10.27;100.00
23339;BME280;11841;49.368;20.962;2022-10-16T01:44:09;96166.63;;;10.30;100.00
23339;BME280;11841;49.368;20.962;2022-10-16T01:46:38;96167.84;;;10.34;100.00
23339;BME280;11841;49.368;20.962;2022-10-16T01:49:05;96166.84;;;10.35;100.00
23339;BME280;11841;49.368;20.962;2022-10-16T01:51:32;96165.81;;;10.36;100.00
23339;BME280;11841;49.368;20.962;2022-10-16T01:54:00;96170.69;;;10.39;100.00
23339;BME280;11841;49.368;20.962;2022-10-16T01:56:27;96169.50;;;10.41;100.00
23339;BME280;11841;49.368;20.962;2022-10-16T01:58:56;96158.88;;;10.48;100.00
23339;BME280;11841;49.368;20.962;2022-10-16T02:01:25;96169.69;;;10.53;100.00
23339;BME280;11841;49.368;20.962;2022-10-16T02:03:53;96171.50;;;10.59;100.00
23339;BME280;11841;49.368;20.962;2022-10-16T02:06:22;96168.25;;;10.63;100.00
23339;BME280;11841;49.368;20.962;2022-10-16T02:08:49;96166.63;;;10.69;100.00
23339;BME280;11841;49.368;20.962;2022-10-16T02:11:16;96164.75;;;10.76;100.00
23339;BME280;11841;49.368;20.962;2022-10-16T02:13:46;96171.28;;;10.80;100.00
23339;BME280;11841;49.368;20.962;2022-10-16T02:16:14;96169.44;;;10.87;100.00
23339;BME280;11841;49.368;20.962;2022-10-16T02:18:41;96169.22;;;10.95;99.83
23339;BME280;11841;49.368;20.962;2022-10-16T02:23:36;96168.19;;;11.03;99.37
23339;BME280;11841;49.368;20.962;2022-10-16T02:26:06;96171.22;;;11.06;99.21
23339;BME280;11841;49.368;20.962;2022-10-16T02:28:40;96178.16;;;11.07;99.31
23339;BME280;11841;49.368;20.962;2022-10-16T02:31:09;96175.91;;;11.11;99.51
23339;BME280;11841;49.368;20.962;2022-10-16T02:33:37;96179.38;;;11.11;99.38
23339;BME280;11841;49.368;20.962;2022-10-16T02:36:06;96175.69;;;11.12;99.47
23339;BME280;11841;49.368;20.962;2022-10-16T02:38:33;96184.88;;;11.16;99.81
23339;BME280;11841;49.368;20.962;2022-10-16T02:41:00;96185.69;;;11.23;99.67
23339;BME280;11841;49.368;20.962;2022-10-16T02:43:26;96185.03;;;11.28;99.20
23339;BME280;11841;49.368;20.962;2022-10-16T02:45:53;96191.75;;;11.30;99.12
23339;BME280;11841;49.368;20.962;2022-10-16T02:48:19;96191.75;;;11.30;99.28
23339;BME280;11841;49.368;20.962;2022-10-16T02:50:45;96184.41;;;11.32;99.22
23339;BME280;11841;49.368;20.962;2022-10-16T02:53:12;96188.72;;;11.33;99.43
23339;BME280;11841;49.368;20.962;2022-10-16T02:55:38;96189.72;;;11.32;99.42
23339;BME280;11841;49.368;20.962;2022-10-16T02:58:05;96194.59;;;11.35;99.56
23339;BME280;11841;49.368;20.962;2022-10-16T03:00:31;96199.50;;;11.38;99.14
23339;BME280;11841;49.368;20.962;2022-10-16T03:02:58;96195.00;;;11.39;99.13
23339;BME280;11841;49.368;20.962;2022-10-16T03:05:24;96198.47;;;11.39;99.40
23339;BME280;11841;49.368;20.962;2022-10-16T03:07:50;96205.63;;;11.39;99.86
23339;BME280;11841;49.368;20.962;2022-10-16T03:10:18;96207.06;;;11.41;99.15
23339;BME280;11841;49.368;20.962;2022-10-16T03:12:45;96205.00;;;11.43;98.84
23339;BME280;11841;49.368;20.962;2022-10-16T03:15:11;96198.66;;;11.44;99.22
23339;BME280;11841;49.368;20.962;2022-10-16T03:17:38;96196.63;;;11.46;99.15
23339;BME280;11841;49.368;20.962;2022-10-16T03:20:04;96195.00;;;11.45;99.06
23339;BME280;11841;49.368;20.962;2022-10-16T03:22:30;96196.63;;;11.46;98.80
23339;BME280;11841;49.368;20.962;2022-10-16T03:24:57;96202.13;;;11.45;99.07
23339;BME280;11841;49.368;20.962;2022-10-16T03:27:23;96206.41;;;11.46;98.74
23339;BME280;11841;49.368;20.962;2022-10-16T03:29:50;96206.41;;;11.46;98.94
23339;BME280;11841;49.368;20.962;2022-10-16T03:32:17;96207.03;;;11.48;98.68
23339;BME280;11841;49.368;20.962;2022-10-16T03:34:44;96209.47;;;11.49;98.58
23339;BME280;11841;49.368;20.962;2022-10-16T03:37:11;96211.50;;;11.54;98.38
23339;BME280;11841;49.368;20.962;2022-10-16T03:39:37;96206.78;;;11.56;98.36
23339;BME280;11841;49.368;20.962;2022-10-16T03:42:03;96218.00;;;11.58;98.31
23339;BME280;11841;49.368;20.962;2022-10-16T03:44:30;96220.66;;;11.58;98.41
23339;BME280;11841;49.368;20.962;2022-10-16T03:46:56;96222.50;;;11.57;98.32
23339;BME280;11841;49.368;20.962;2022-10-16T03:49:23;96224.75;;;11.60;98.20
23339;BME280;11841;49.368;20.962;2022-10-16T03:51:49;96226.38;;;11.61;98.20
23339;BME280;11841;49.368;20.962;2022-10-16T03:54:15;96227.84;;;11.64;97.68
23339;BME280;11841;49.368;20.962;2022-10-16T03:56:42;96226.59;;;11.66;97.82
23339;BME280;11841;49.368;20.962;2022-10-16T03:59:08;96229.84;;;11.68;97.48
23339;BME280;11841;49.368;20.962;2022-10-16T04:01:35;96234.13;;;11.69;97.55
23339;BME280;11841;49.368;20.962;2022-10-16T04:04:01;96234.34;;;11.68;97.87
23339;BME280;11841;49.368;20.962;2022-10-16T04:06:27;96232.72;;;11.67;97.79
23339;BME280;11841;49.368;20.962;2022-10-16T04:08:54;96239.66;;;11.68;97.60
23339;BME280;11841;49.368;20.962;2022-10-16T04:11:20;96235.16;;;11.68;97.92
23339;BME280;11841;49.368;20.962;2022-10-16T04:13:47;96225.59;;;11.67;97.85
23339;BME280;11841;49.368;20.962;2022-10-16T04:16:13;96222.94;;;11.67;97.73
23339;BME280;11841;49.368;20.962;2022-10-16T04:18:40;96220.28;;;11.67;97.73
23339;BME280;11841;49.368;20.962;2022-10-16T04:21:06;96228.03;;;11.69;97.56
23339;BME280;11841;49.368;20.962;2022-10-16T04:23:33;96229.84;;;11.68;97.79
23339;BME280;11841;49.368;20.962;2022-10-16T04:26:00;96230.06;;;11.67;97.70
23339;BME280;11841;49.368;20.962;2022-10-16T04:28:26;96232.72;;;11.67;98.30
23339;BME280;11841;49.368;20.962;2022-10-16T04:30:53;96238.25;;;11.65;98.14
23339;BME280;11841;49.368;20.962;2022-10-16T04:33:19;96234.56;;;11.66;98.19
23339;BME280;11841;49.368;20.962;2022-10-16T04:35:46;96244.75;;;11.69;98.05
23339;BME280;11841;49.368;20.962;2022-10-16T04:38:12;96241.09;;;11.70;98.06
23339;BME280;11841;49.368;20.962;2022-10-16T04:40:38;96244.75;;;11.69;97.73
23339;BME280;11841;49.368;20.962;2022-10-16T04:43:05;96247.63;;;11.68;97.95
23339;BME280;11841;49.368;20.962;2022-10-16T04:45:32;96244.19;;;11.67;98.04
23339;BME280;11841;49.368;20.962;2022-10-16T04:47:58;96243.78;;;11.64;98.38
23339;BME280;11841;49.368;20.962;2022-10-16T04:50:25;96253.53;;;11.63;98.20
23339;BME280;11841;49.368;20.962;2022-10-16T04:52:51;96257.22;;;11.62;98.09
23339;BME280;11841;49.368;20.962;2022-10-16T04:55:18;96256.63;;;11.60;98.77
23339;BME280;11841;49.368;20.962;2022-10-16T04:57:44;96257.22;;;11.62;98.70
23339;BME280;11841;49.368;20.962;2022-10-16T05:00:11;96264.38;;;11.62;98.33
23339;BME280;11841;49.368;20.962;2022-10-16T05:02:37;96270.50;;;11.62;98.65
23339;BME280;11841;49.368;20.962;2022-10-16T05:05:04;96263.78;;;11.66;98.24
23339;BME280;11841;49.368;20.962;2022-10-16T05:07:31;96265.00;;;11.70;97.92
23339;BME280;11841;49.368;20.962;2022-10-16T05:09:57;96274.97;;;11.75;97.83
23339;BME280;11841;49.368;20.962;2022-10-16T05:12:24;96277.44;;;11.76;97.53
23339;BME280;11841;49.368;20.962;2022-10-16T05:14:50;96279.28;;;11.76;97.37
23339;BME280;11841;49.368;20.962;2022-10-16T05:17:16;96273.97;;;11.76;97.65
23339;BME280;11841;49.368;20.962;2022-10-16T05:19:43;96279.69;;;11.73;97.72
23339;BME280;11841;49.368;20.962;2022-10-16T05:22:09;96278.69;;;11.74;97.73
23339;BME280;11841;49.368;20.962;2022-10-16T05:24:36;96275.81;;;11.75;97.63
23339;BME280;11841;49.368;20.962;2022-10-16T05:27:02;96279.06;;;11.77;97.74
23339;BME280;11841;49.368;20.962;2022-10-16T05:29:29;96272.31;;;11.75;97.51
23339;BME280;11841;49.368;20.962;2022-10-16T05:31:55;96275.81;;;11.75;97.94
23339;BME280;11841;49.368;20.962;2022-10-16T05:34:21;96279.06;;;11.77;97.87
23339;BME280;11841;49.368;20.962;2022-10-16T05:36:48;96285.19;;;11.78;97.53
23339;BME280;11841;49.368;20.962;2022-10-16T05:39:14;96292.56;;;11.76;98.29
23339;BME280;11841;49.368;20.962;2022-10-16T05:41:42;96299.50;;;11.77;98.13
23339;BME280;11841;49.368;20.962;2022-10-16T05:44:08;96304.59;;;11.78;98.13
23339;BME280;11841;49.368;20.962;2022-10-16T05:46:35;96303.56;;;11.79;98.19
23339;BME280;11841;49.368;20.962;2022-10-16T05:49:01;96303.16;;;11.82;98.27
23339;BME280;11841;49.368;20.962;2022-10-16T05:51:28;96305.63;;;11.84;97.96
23339;BME280;11841;49.368;20.962;2022-10-16T05:53:54;96311.31;;;11.87;97.88
23339;BME280;11841;49.368;20.962;2022-10-16T05:56:20;96306.81;;;11.88;98.02
23339;BME280;11841;49.368;20.962;2022-10-16T05:58:47;96320.09;;;11.94;97.90
23339;BME280;11841;49.368;20.962;2022-10-16T06:01:14;96318.03;;;11.96;97.79
23339;BME280;11841;49.368;20.962;2022-10-16T06:03:41;96321.91;;;12.00;97.73
23339;BME280;11841;49.368;20.962;2022-10-16T06:06:12;96325.16;;;12.02;98.30
23339;BME280;11841;49.368;20.962;2022-10-16T06:08:40;96326.00;;;12.03;97.80
23339;BME280;11841;49.368;20.962;2022-10-16T06:11:08;96319.41;;;12.05;97.51
23339;BME280;11841;49.368;20.962;2022-10-16T06:13:35;96323.50;;;12.08;97.75
23339;BME280;11841;49.368;20.962;2022-10-16T06:16:01;96319.38;;;12.12;97.65
23339;BME280;11841;49.368;20.962;2022-10-16T06:18:29;96329.19;;;12.11;97.58
23339;BME280;11841;49.368;20.962;2022-10-16T06:20:56;96338.19;;;12.17;97.23
23339;BME280;11841;49.368;20.962;2022-10-16T06:23:23;96341.66;;;12.18;96.86
23339;BME280;11841;49.368;20.962;2022-10-16T06:25:49;96338.56;;;12.21;96.87
23339;BME280;11841;49.368;20.962;2022-10-16T06:28:16;96333.25;;;12.21;96.58
23339;BME280;11841;49.368;20.962;2022-10-16T06:30:42;96336.75;;;12.21;96.65
23339;BME280;11841;49.368;20.962;2022-10-16T06:33:10;96343.06;;;12.20;96.42
23339;BME280;11841;49.368;20.962;2022-10-16T06:35:36;96345.72;;;12.20;96.58
23339;BME280;11841;49.368;20.962;2022-10-16T06:38:03;96358.22;;;12.20;96.51
23339;BME280;11841;49.368;20.962;2022-10-16T06:40:29;96367.41;;;12.17;96.03
23339;BME280;11841;49.368;20.962;2022-10-16T06:42:56;96361.69;;;12.13;96.20
23339;BME280;11841;49.368;20.962;2022-10-16T06:45:22;96370.09;;;12.10;96.46
23339;BME280;11841;49.368;20.962;2022-10-16T06:47:49;96364.78;;;12.10;96.69
23339;BME280;11841;49.368;20.962;2022-10-16T06:50:15;96362.97;;;12.11;96.58
23339;BME280;11841;49.368;20.962;2022-10-16T06:52:41;96364.34;;;12.13;96.37
23339;BME280;11841;49.368;20.962;2022-10-16T06:55:08;96369.69;;;12.13;96.43
23339;BME280;11841;49.368;20.962;2022-10-16T06:57:34;96373.38;;;12.12;96.80
23339;BME280;11841;49.368;20.962;2022-10-16T07:00:01;96373.16;;;12.14;97.06
23339;BME280;11841;49.368;20.962;2022-10-16T07:02:27;96369.28;;;12.17;96.71
23339;BME280;11841;49.368;20.962;2022-10-16T07:04:54;96374.59;;;12.17;96.62
23339;BME280;11841;49.368;20.962;2022-10-16T07:07:23;96363.97;;;12.17;96.63
23339;BME280;11841;49.368;20.962;2022-10-16T07:09:50;96376.84;;;12.20;96.62
23339;BME280;11841;49.368;20.962;2022-10-16T07:12:17;96381.72;;;12.23;96.25
23339;BME280;11841;49.368;20.962;2022-10-16T07:14:43;96377.00;;;12.25;96.25
23339;BME280;11841;49.368;20.962;2022-10-16T07:17:10;96383.53;;;12.29;96.24
23339;BME280;11841;49.368;20.962;2022-10-16T07:19:36;96379.84;;;12.30;95.94
23339;BME280;11841;49.368;20.962;2022-10-16T07:22:03;96387.63;;;12.31;95.89
23339;BME280;11841;49.368;20.962;2022-10-16T07:24:29;96383.13;;;12.32;95.75
23339;BME280;11841;49.368;20.962;2022-10-16T07:26:55;96387.19;;;12.34;96.04
23339;BME280;11841;49.368;20.962;2022-10-16T07:29:22;96388.00;;;12.35;95.92
23339;BME280;11841;49.368;20.962;2022-10-16T07:31:49;96390.84;;;12.40;95.61
23339;BME280;11841;49.368;20.962;2022-10-16T07:34:16;96393.34;;;12.35;95.72
23339;BME280;11841;49.368;20.962;2022-10-16T07:36:43;96396.59;;;12.37;95.52
23339;BME280;11841;49.368;20.962;2022-10-16T07:39:09;96401.09;;;12.36;95.61
23339;BME280;11841;49.368;20.962;2022-10-16T07:41:35;96401.72;;;12.38;95.44
23339;BME280;11841;49.368;20.962;2022-10-16T07:44:03;96394.72;;;12.37;95.38
23339;BME280;11841;49.368;20.962;2022-10-16T07:46:30;96402.72;;;12.37;95.47
23339;BME280;11841;49.368;20.962;2022-10-16T07:48:57;96399.88;;;12.39;95.64
23339;BME280;11841;49.368;20.962;2022-10-16T07:51:24;96405.97;;;12.39;95.68
23339;BME280;11841;49.368;20.962;2022-10-16T07:53:51;96414.56;;;12.41;95.42
23339;BME280;11841;49.368;20.962;2022-10-16T07:56:18;96413.34;;;12.44;95.11
23339;BME280;11841;49.368;20.962;2022-10-16T07:58:45;96411.28;;;12.46;95.45
23339;BME280;11841;49.368;20.962;2022-10-16T08:01:13;96409.84;;;12.50;95.28
23339;BME280;11841;49.368;20.962;2022-10-16T08:03:43;96424.34;;;12.54;95.18
23339;BME280;11841;49.368;20.962;2022-10-16T08:06:10;96413.28;;;12.57;95.04
23339;BME280;11841;49.368;20.962;2022-10-16T08:08:37;96425.53;;;12.58;95.28
23339;BME280;11841;49.368;20.962;2022-10-16T08:11:03;96420.22;;;12.58;95.31
23339;BME280;11841;49.368;20.962;2022-10-16T08:13:30;96434.53;;;12.63;95.03
23339;BME280;11841;49.368;20.962;2022-10-16T08:15:57;96423.06;;;12.63;95.20
23339;BME280;11841;49.368;20.962;2022-10-16T08:18:23;96423.06;;;12.63;95.18
23339;BME280;11841;49.368;20.962;2022-10-16T08:20:56;96428.38;;;12.63;95.19
23339;BME280;11841;49.368;20.962;2022-10-16T08:23:24;96425.09;;;12.67;95.17
23339;BME280;11841;49.368;20.962;2022-10-16T08:25:52;96430.44;;;12.67;95.08
23339;BME280;11841;49.368;20.962;2022-10-16T08:28:20;96430.00;;;12.70;95.15
23339;BME280;11841;49.368;20.962;2022-10-16T08:30:46;96435.72;;;12.74;95.30
23339;BME280;11841;49.368;20.962;2022-10-16T08:33:13;96433.66;;;12.76;95.58
23339;BME280;11841;49.368;20.962;2022-10-16T08:35:39;96426.88;;;12.80;95.56
23339;BME280;11841;49.368;20.962;2022-10-16T08:38:06;96438.94;;;12.82;95.06
23339;BME280;11841;49.368;20.962;2022-10-16T08:40:33;96444.66;;;12.86;95.30
23339;BME280;11841;49.368;20.962;2022-10-16T08:43:04;96445.84;;;12.90;94.97
23339;BME280;11841;49.368;20.962;2022-10-16T08:50:40;96438.41;;;13.05;95.21
23339;BME280;11841;49.368;20.962;2022-10-16T08:53:07;96433.47;;;13.08;95.34
23339;BME280;11841;49.368;20.962;2022-10-16T08:55:44;96441.63;;;13.13;95.09
23339;BME280;11841;49.368;20.962;2022-10-16T08:58:16;96440.78;;;13.19;94.70
23339;BME280;11841;49.368;20.962;2022-10-16T09:00:46;96444.47;;;13.25;94.60
23339;BME280;11841;49.368;20.962;2022-10-16T09:05:53;96455.00;;;13.38;93.97
23339;BME280;11841;49.368;20.962;2022-10-16T09:08:29;96444.06;;;13.46;94.39
23339;BME280;11841;49.368;20.962;2022-10-16T09:10:59;96441.13;;;13.54;94.41
23339;BME280;11841;49.368;20.962;2022-10-16T09:16:10;96441.66;;;13.69;94.32
23339;BME280;11841;49.368;20.962;2022-10-16T09:19:27;96444.03;;;13.77;94.34
23339;BME280;11841;49.368;20.962;2022-10-16T09:21:28;96446.78;;;13.89;94.24
23339;BME280;11841;49.368;20.962;2022-10-16T09:23:59;96445.09;;;13.94;93.16
23339;BME280;11841;49.368;20.962;2022-10-16T09:26:31;96441.69;;;14.05;93.17
23339;BME280;11841;49.368;20.962;2022-10-16T09:28:57;96438.97;;;14.12;93.56
23339;BME280;11841;49.368;20.962;2022-10-16T09:31:24;96442.38;;;14.19;93.62
23339;BME280;11841;49.368;20.962;2022-10-16T09:33:52;96447.25;;;14.28;93.10
23339;BME280;11841;49.368;20.962;2022-10-16T09:36:20;96455.78;;;14.37;92.04
23339;BME280;11841;49.368;20.962;2022-10-16T09:38:46;96445.81;;;14.44;92.83
23339;BME280;11841;49.368;20.962;2022-10-16T09:46:25;96459.47;;;14.72;90.68
23339;BME280;11841;49.368;20.962;2022-10-16T09:48:54;96451.38;;;14.79;91.57
23339;BME280;11841;49.368;20.962;2022-10-16T09:51:22;96447.59;;;14.86;89.27
23339;BME280;11841;49.368;20.962;2022-10-16T09:53:53;96454.91;;;14.91;89.76
23339;BME280;11841;49.368;20.962;2022-10-16T09:56:21;96459.34;;;14.97;90.38
23339;BME280;11841;49.368;20.962;2022-10-16T09:58:52;96451.47;;;15.02;90.15
23339;BME280;11841;49.368;20.962;2022-10-16T10:01:19;96452.88;;;15.04;88.06
23339;BME280;11841;49.368;20.962;2022-10-16T10:03:46;96450.13;;;15.11;89.00
23339;BME280;11841;49.368;20.962;2022-10-16T10:06:18;96453.97;;;15.15;88.17
23339;BME280;11841;49.368;20.962;2022-10-16T10:11:39;96447.25;;;15.24;87.43
23339;BME280;11841;49.368;20.962;2022-10-16T10:14:13;96446.34;;;15.30;87.11
23339;BME280;11841;49.368;20.962;2022-10-16T10:16:41;96440.47;;;15.39;87.67
23339;BME280;11841;49.368;20.962;2022-10-16T10:19:13;96447.81;;;15.44;87.41
23339;BME280;11841;49.368;20.962;2022-10-16T10:21:39;96434.81;;;15.47;85.87
23339;BME280;11841;49.368;20.962;2022-10-16T10:24:09;96436.09;;;15.56;87.35
23339;BME280;11841;49.368;20.962;2022-10-16T10:26:35;96442.97;;;15.64;87.04
23339;BME280;11841;49.368;20.962;2022-10-16T10:34:25;96440.44;;;15.81;83.96
23339;BME280;11841;49.368;20.962;2022-10-16T10:40:00;96439.97;;;15.95;85.40
23339;BME280;11841;49.368;20.962;2022-10-16T10:42:36;96448.56;;;15.97;82.90
23339;BME280;11841;49.368;20.962;2022-10-16T10:55:36;96435.53;;;16.35;79.79
23339;BME280;11841;49.368;20.962;2022-10-16T11:00:34;96440.78;;;16.53;81.44
23339;BME280;11841;49.368;20.962;2022-10-16T11:03:20;96434.59;;;16.64;79.29
23339;BME280;11841;49.368;20.962;2022-10-16T11:06:23;96442.09;;;16.79;77.75
23339;BME280;11841;49.368;20.962;2022-10-16T11:08:47;96431.81;;;16.87;79.87
23339;BME280;11841;49.368;20.962;2022-10-16T11:11:25;96437.28;;;16.92;80.52
23339;BME280;11841;49.368;20.962;2022-10-16T11:16:43;96436.84;;;17.12;76.72
23339;BME280;11841;49.368;20.962;2022-10-16T11:19:29;96425.03;;;17.25;76.46
23339;BME280;11841;49.368;20.962;2022-10-16T11:22:03;96432.22;;;17.36;75.58
23339;BME280;11841;49.368;20.962;2022-10-16T11:24:45;96422.13;;;17.43;76.32
23339;BME280;11841;49.368;20.962;2022-10-16T11:27:14;96423.31;;;17.47;74.42
23339;BME280;11841;49.368;20.962;2022-10-16T11:29:50;96419.88;;;17.51;76.33
23339;BME280;11841;49.368;20.962;2022-10-16T11:32:20;96416.50;;;17.56;76.33
23339;BME280;11841;49.368;20.962;2022-10-16T11:34:50;96424.13;;;17.64;74.49
23339;BME280;11841;49.368;20.962;2022-10-16T11:37:40;96423.63;;;17.67;72.51
23339;BME280;11841;49.368;20.962;2022-10-16T11:40:11;96431.38;;;17.80;73.43
23339;BME280;11841;49.368;20.962;2022-10-16T11:42:44;96428.69;;;17.80;72.58
23339;BME280;11841;49.368;20.962;2022-10-16T11:45:35;96429.00;;;17.83;74.32
23339;BME280;11841;49.368;20.962;2022-10-16T11:56:17;96436.16;;;17.94;72.88
23339;BME280;11841;49.368;20.962;2022-10-16T11:59:07;96428.50;;;18.03;74.05
23339;BME280;11841;49.368;20.962;2022-10-16T12:04:17;96438.09;;;18.16;68.31
23339;BME280;11841;49.368;20.962;2022-10-16T12:06:48;96432.50;;;18.17;68.45
23339;BME280;11841;49.368;20.962;2022-10-16T12:11:47;96431.63;;;18.33;68.23
23339;BME280;11841;49.368;20.962;2022-10-16T12:19:19;96422.69;;;18.44;64.43
23339;BME280;11841;49.368;20.962;2022-10-16T12:21:45;96425.44;;;18.49;65.74
23339;BME280;11841;49.368;20.962;2022-10-16T12:24:32;96428.75;;;18.56;65.62
23339;BME280;11841;49.368;20.962;2022-10-16T12:27:00;96423.41;;;18.56;63.30
23339;BME280;11841;49.368;20.962;2022-10-16T12:29:32;96425.56;;;18.59;65.45
23339;BME280;11841;49.368;20.962;2022-10-16T12:31:59;96424.50;;;18.60;64.48
23339;BME280;11841;49.368;20.962;2022-10-16T12:34:29;96418.81;;;18.57;65.43
23339;BME280;11841;49.368;20.962;2022-10-16T12:37:07;96432.31;;;18.62;65.91
23339;BME280;11841;49.368;20.962;2022-10-16T12:39:35;96432.56;;;18.60;64.87
23339;BME280;11841;49.368;20.962;2022-10-16T12:42:03;96432.31;;;18.62;65.56
23339;BME280;11841;49.368;20.962;2022-10-16T12:44:34;96428.91;;;18.66;63.35
23339;BME280;11841;49.368;20.962;2022-10-16T12:47:01;96435.00;;;18.62;63.20
23339;BME280;11841;49.368;20.962;2022-10-16T12:51:54;96443.16;;;18.50;64.39
23339;BME280;11841;49.368;20.962;2022-10-16T12:54:31;96441.50;;;18.44;63.49
23339;BME280;11841;49.368;20.962;2022-10-16T12:59:37;96444.06;;;18.56;63.16
23339;BME280;11841;49.368;20.962;2022-10-16T13:02:16;96454.28;;;18.59;62.97
23339;BME280;11841;49.368;20.962;2022-10-16T13:07:38;96451.88;;;18.57;63.89
23339;BME280;11841;49.368;20.962;2022-10-16T13:10:31;96452.28;;;18.49;63.02
23339;BME280;11841;49.368;20.962;2022-10-16T13:15:50;96454.34;;;18.42;63.93
23339;BME280;11841;49.368;20.962;2022-10-16T13:28:48;96463.22;;;18.43;63.03
23339;BME280;11841;49.368;20.962;2022-10-16T13:31:19;96470.78;;;18.29;61.52
23339;BME280;11841;49.368;20.962;2022-10-16T13:33:52;96466.38;;;18.23;62.27
23339;BME280;11841;49.368;20.962;2022-10-16T13:36:23;96468.41;;;18.16;62.20
23339;BME280;11841;49.368;20.962;2022-10-16T13:39:01;96472.66;;;18.12;62.62
23339;BME280;11841;49.368;20.962;2022-10-16T13:41:32;96475.34;;;18.12;62.92
23339;BME280;11841;49.368;20.962;2022-10-16T13:43:59;96475.50;;;18.05;62.63
23339;BME280;11841;49.368;20.962;2022-10-16T13:46:25;96477.31;;;18.00;63.31
23339;BME280;11841;49.368;20.962;2022-10-16T13:51:28;96465.00;;;17.87;62.20
23339;BME280;11841;49.368;20.962;2022-10-16T13:53:54;96460.22;;;17.89;62.98
23339;BME280;11841;49.368;20.962;2022-10-16T13:56:22;96463.00;;;17.94;64.09
23339;BME280;11841;49.368;20.962;2022-10-16T14:01:44;96472.91;;;17.94;64.18
23339;BME280;11841;49.368;20.962;2022-10-16T14:04:11;96469.63;;;17.92;64.05
23339;BME280;11841;49.368;20.962;2022-10-16T14:06:43;96482.00;;;17.93;63.85
23339;BME280;11841;49.368;20.962;2022-10-16T14:09:29;96486.56;;;17.92;64.41
23339;BME280;11841;49.368;20.962;2022-10-16T14:12:00;96483.31;;;17.90;64.88
23339;BME280;11841;49.368;20.962;2022-10-16T14:14:43;96483.78;;;17.87;65.17
23339;BME280;11841;49.368;20.962;2022-10-16T14:17:18;96489.97;;;17.88;66.10
23339;BME280;11841;49.368;20.962;2022-10-16T14:19:46;96486.06;;;17.79;66.73
23339;BME280;11841;49.368;20.962;2022-10-16T14:24:47;96477.75;;;17.64;66.15
23339;BME280;11841;49.368;20.962;2022-10-16T14:27:23;96486.31;;;17.61;65.65
23339;BME280;11841;49.368;20.962;2022-10-16T14:29:50;96491.66;;;17.61;66.87
23339;BME280;11841;49.368;20.962;2022-10-16T14:32:26;96492.59;;;17.55;66.93
23339;BME280;11841;49.368;20.962;2022-10-16T14:34:53;96490.25;;;17.58;67.40
23339;BME280;11841;49.368;20.962;2022-10-16T14:37:24;96502.38;;;17.61;67.83
23339;BME280;11841;49.368;20.962;2022-10-16T14:39:53;96499.53;;;17.51;67.63
23339;BME280;11841;49.368;20.962;2022-10-16T14:42:21;96495.06;;;17.45;67.97
23339;BME280;11841;49.368;20.962;2022-10-16T14:44:50;96503.38;;;17.43;68.49